createdAt,value
2022-09-20T00:01:32.679Z,11.60
2022-09-20T00:04:02.453Z,7.95
2022-09-20T00:06:31.721Z,10.70
2022-09-20T00:08:59.843Z,13.63
2022-09-20T00:11:29.721Z,8.60
2022-09-20T00:13:58.972Z,8.63
2022-09-20T00:16:35.176Z,8.75
2022-09-20T00:19:04.289Z,16.70
2022-09-20T00:21:33.007Z,15.10
2022-09-20T00:24:00.484Z,8.45
2022-09-20T00:26:28.328Z,13.10
2022-09-20T00:28:56.113Z,13.68
2022-09-20T00:31:23.067Z,10.77
2022-09-20T00:34:08.299Z,11.20
2022-09-20T00:36:35.155Z,11.43
2022-09-20T00:39:03.556Z,13.93
2022-09-20T00:41:31.869Z,11.23
2022-09-20T00:43:59.394Z,8.07
2022-09-20T00:46:43.653Z,15.00
2022-09-20T00:49:16.498Z,9.70
2022-09-20T00:51:47.261Z,11.90
2022-09-20T00:54:20.304Z,9.57
2022-09-20T00:56:48.481Z,12.10
2022-09-20T00:59:19.976Z,11.57
2022-09-20T01:01:52.558Z,9.45
2022-09-20T01:04:23.131Z,10.45
2022-09-20T01:06:51.841Z,9.82
2022-09-20T01:09:18.566Z,8.27
2022-09-20T01:11:46.701Z,10.52
2022-09-20T01:14:15.533Z,7.03
2022-09-20T01:16:42.563Z,8.73
2022-09-20T01:19:27.456Z,9.32
2022-09-20T01:21:54.921Z,7.70
2022-09-20T01:24:38.981Z,8.77
2022-09-20T01:27:34.019Z,12.98
2022-09-20T01:30:00.809Z,12.95
2022-09-20T01:32:52.397Z,10.35
2022-09-20T01:35:21.540Z,7.88
2022-09-20T01:38:23.229Z,9.88
2022-09-20T01:40:51.004Z,12.90
2022-09-20T01:43:29.765Z,9.23
2022-09-20T01:46:02.685Z,9.27
2022-09-20T01:48:32.463Z,10.10
2022-09-20T01:54:23.766Z,7.85
2022-09-20T01:57:27.312Z,7.63
2022-09-20T01:59:57.098Z,10.75
2022-09-20T02:02:48.896Z,9.68
2022-09-20T02:05:48.171Z,7.38
2022-09-20T02:08:30.333Z,7.97
2022-09-20T02:11:13.235Z,12.40
2022-09-20T02:13:40.152Z,8.10
2022-09-20T02:16:25.125Z,10.90
2022-09-20T02:19:16.577Z,9.38
2022-09-20T02:22:21.749Z,9.75
2022-09-20T02:25:02.112Z,12.27
2022-09-20T02:27:34.468Z,9.20
2022-09-20T02:30:07.338Z,11.52
2022-09-20T02:32:51.984Z,9.65
2022-09-20T02:35:30.745Z,10.43
2022-09-20T02:38:11.689Z,12.37
2022-09-20T02:40:56.950Z,11.40
2022-09-20T02:43:48.577Z,11.65
2022-09-20T02:46:38.360Z,9.05
2022-09-20T02:49:11.390Z,13.20
2022-09-20T02:51:46.945Z,10.88
2022-09-20T02:54:19.749Z,9.93
2022-09-20T02:57:03.069Z,14.32
2022-09-20T02:59:40.772Z,13.93
2022-09-20T03:02:12.718Z,12.88
2022-09-20T03:05:11.380Z,16.42
2022-09-20T03:07:47.233Z,12.38
2022-09-20T03:10:33.989Z,15.13
2022-09-20T03:13:19.285Z,13.38
2022-09-20T03:15:48.938Z,15.23
2022-09-20T03:18:38.359Z,15.45
2022-09-20T03:21:26.911Z,17.38
2022-09-20T03:24:21.400Z,14.15
2022-09-20T03:26:57.162Z,14.02
2022-09-20T03:29:51.631Z,14.50
2022-09-20T03:32:49.103Z,16.48
2022-09-20T03:35:45.259Z,15.15
2022-09-20T03:38:47.453Z,16.33
2022-09-20T03:41:26.297Z,19.85
2022-09-20T03:43:52.942Z,15.03
2022-09-20T03:46:22.973Z,15.68
2022-09-20T03:49:17.734Z,14.40
2022-09-20T03:52:14.557Z,18.38
2022-09-20T03:55:02.715Z,17.63
2022-09-20T03:57:39.631Z,16.20
2022-09-20T04:00:12.315Z,16.05
2022-09-20T04:02:51.302Z,14.63
2022-09-20T04:05:27.248Z,14.85
2022-09-20T04:07:59.869Z,14.80
2022-09-20T04:11:08.437Z,16.45
2022-09-20T04:13:37.125Z,14.68
2022-09-20T04:16:41.219Z,14.25
2022-09-20T04:19:32.152Z,19.60
2022-09-20T04:22:01.065Z,18.98
2022-09-20T04:24:30.918Z,14.27
2022-09-20T04:27:21.083Z,14.68
2022-09-20T04:29:58.237Z,18.85
2022-09-20T04:32:48.435Z,16.90
2022-09-20T04:35:42.266Z,17.45
2022-09-20T04:38:15.061Z,14.02
2022-09-20T04:41:07.940Z,14.85
2022-09-20T04:43:51.394Z,12.88
2022-09-20T04:46:57.910Z,14.27
2022-09-20T04:49:39.820Z,15.07
2022-09-20T04:52:24.770Z,13.77
2022-09-20T04:55:25.178Z,15.02
2022-09-20T04:58:33.265Z,17.45
2022-09-20T05:01:16.945Z,11.88
2022-09-20T05:04:02.011Z,18.70
2022-09-20T05:06:47.130Z,13.18
2022-09-20T05:09:32.557Z,14.25
2022-09-20T05:12:36.277Z,14.82
2022-09-20T05:15:10.397Z,20.60
2022-09-20T05:18:05.080Z,13.52
2022-09-20T05:20:59.910Z,15.98
2022-09-20T05:24:06.711Z,25.08
2022-09-20T05:26:38.967Z,16.25
2022-09-20T05:29:10.325Z,14.23
2022-09-20T05:32:14.529Z,14.02
2022-09-20T05:35:02.496Z,13.75
2022-09-20T05:37:37.648Z,13.90
2022-09-20T05:40:22.089Z,15.18
2022-09-20T05:43:12.160Z,14.90
2022-09-20T05:45:53.368Z,15.63
2022-09-20T05:48:22.929Z,16.33
2022-09-20T05:51:14.317Z,17.90
2022-09-20T05:53:50.012Z,16.05
2022-09-20T05:56:35.192Z,17.13
2022-09-20T05:59:14.296Z,15.20
2022-09-20T06:02:03.880Z,13.13
2022-09-20T06:04:40.379Z,13.93
2022-09-20T06:07:19.503Z,16.70
2022-09-20T06:10:15.465Z,14.23
2022-09-20T06:13:09.058Z,15.30
2022-09-20T06:15:47.093Z,18.52
2022-09-20T06:18:17.879Z,14.30
2022-09-20T06:21:00.292Z,18.02
2022-09-20T06:23:27.537Z,14.68
2022-09-20T06:26:02.511Z,17.25
2022-09-20T06:28:42.207Z,15.88
2022-09-20T06:31:10.702Z,14.77
2022-09-20T06:33:50.563Z,15.63
2022-09-20T06:39:43.808Z,18.00
2022-09-20T06:42:11.053Z,23.17
2022-09-20T06:44:43.125Z,17.35
2022-09-20T06:47:15.552Z,17.73
2022-09-20T06:49:46.925Z,20.17
2022-09-20T06:52:15.977Z,18.25
2022-09-20T06:54:47.207Z,15.60
2022-09-20T06:57:40.420Z,17.80
2022-09-20T07:00:10.970Z,19.17
2022-09-20T07:02:37.722Z,17.30
2022-09-20T07:05:07.846Z,17.38
2022-09-20T07:07:34.553Z,22.77
2022-09-20T07:10:01.381Z,16.70
2022-09-20T07:12:29.548Z,16.95
2022-09-20T07:14:56.230Z,18.05
2022-09-20T07:17:23.168Z,16.65
2022-09-20T07:19:50.111Z,18.08
2022-09-20T07:22:17.208Z,16.33
2022-09-20T07:24:45.030Z,16.52
2022-09-20T07:27:12.723Z,18.73
2022-09-20T07:29:41.187Z,19.63
2022-09-20T07:32:08.587Z,22.38
2022-09-20T07:34:35.389Z,18.88
2022-09-20T07:37:02.265Z,21.95
2022-09-20T07:39:29.524Z,24.73
2022-09-20T07:41:56.865Z,18.50
2022-09-20T07:44:28.011Z,17.67
2022-09-20T07:47:01.343Z,16.60
2022-09-20T07:49:32.639Z,17.73
2022-09-20T07:51:59.736Z,15.48
2022-09-20T07:54:28.136Z,17.67
2022-09-20T07:56:54.885Z,20.13
2022-09-20T07:59:21.854Z,16.00
2022-09-20T08:01:48.899Z,15.40
2022-09-20T08:04:15.749Z,19.30
2022-09-20T08:06:44.763Z,15.82
2022-09-20T08:09:12.921Z,16.33
2022-09-20T08:11:41.848Z,17.35
2022-09-20T08:14:13.464Z,17.60
2022-09-20T08:16:43.211Z,14.40
2022-09-20T08:19:18.589Z,19.27
2022-09-20T08:21:45.432Z,17.10
2022-09-20T08:24:12.392Z,15.35
2022-09-20T08:26:39.519Z,15.80
2022-09-20T08:29:06.918Z,17.10
2022-09-20T08:31:37.071Z,14.18
2022-09-20T08:34:07.046Z,15.00
2022-09-20T08:36:37.051Z,15.13
2022-09-20T08:42:18.650Z,13.93
2022-09-20T08:45:00.485Z,14.63
2022-09-20T08:47:35.717Z,14.23
2022-09-20T08:50:11.487Z,14.02
2022-09-20T08:52:40.845Z,13.68
2022-09-20T08:55:28.094Z,16.27
2022-09-20T08:57:57.668Z,13.77
2022-09-20T09:00:30.627Z,17.35
2022-09-20T09:03:01.526Z,14.07
2022-09-20T09:05:43.375Z,14.48
2022-09-20T09:08:16.859Z,14.15
2022-09-20T09:10:55.220Z,15.55
2022-09-20T09:13:32.175Z,13.75
2022-09-20T09:16:23.069Z,13.60
2022-09-20T09:18:53.397Z,15.43
2022-09-20T09:21:27.952Z,14.20
2022-09-20T09:24:20.793Z,12.18
2022-09-20T09:26:47.495Z,13.23
2022-09-20T09:29:23.497Z,12.35
2022-09-20T09:31:52.627Z,13.27
2022-09-20T09:34:39.332Z,15.88
2022-09-20T09:37:06.047Z,14.02
2022-09-20T09:39:38.545Z,16.98
2022-09-20T09:42:26.019Z,19.60
2022-09-20T09:44:52.737Z,12.90
2022-09-20T09:47:27.904Z,19.05
2022-09-20T09:50:06.097Z,14.02
2022-09-20T09:52:36.634Z,17.48
2022-09-20T09:55:05.867Z,14.40
2022-09-20T09:57:54.528Z,13.50
2022-09-20T10:00:23.734Z,13.20
2022-09-20T10:03:09.364Z,13.23
2022-09-20T10:06:10.293Z,13.20
2022-09-20T10:08:37.721Z,13.65
2022-09-20T10:11:42.860Z,13.50
2022-09-20T10:14:23.275Z,15.55
2022-09-20T10:16:55.909Z,11.95
2022-09-20T10:19:49.295Z,12.85
2022-09-20T10:22:31.288Z,13.10
2022-09-20T10:25:19.875Z,12.57
2022-09-20T10:28:14.556Z,14.27
2022-09-20T10:30:57.271Z,12.25
2022-09-20T10:33:53.208Z,12.93
2022-09-20T10:36:54.510Z,13.02
2022-09-20T10:39:27.218Z,15.57
2022-09-20T10:42:38.243Z,12.15
2022-09-20T10:46:03.697Z,12.85
2022-09-20T10:48:42.864Z,12.55
2022-09-20T10:51:35.483Z,12.60
2022-09-20T10:54:17.628Z,14.93
2022-09-20T10:56:50.668Z,13.77
2022-09-20T10:59:36.326Z,12.98
2022-09-20T11:02:28.335Z,12.30
2022-09-20T11:05:00.881Z,12.63
2022-09-20T11:07:33.744Z,14.52
2022-09-20T11:10:13.649Z,11.40
2022-09-20T11:13:11.704Z,13.70
2022-09-20T11:16:02.687Z,15.05
2022-09-20T11:18:33.616Z,12.02
2022-09-20T11:21:11.380Z,13.55
2022-09-20T11:23:44.327Z,13.02
2022-09-20T11:26:17.949Z,11.38
2022-09-20T11:28:51.635Z,12.43
2022-09-20T11:31:35.909Z,11.48
2022-09-20T11:34:21.314Z,12.77
2022-09-20T11:36:54.768Z,11.63
2022-09-20T11:39:21.392Z,12.52
2022-09-20T11:41:51.154Z,12.38
2022-09-20T11:44:20.207Z,12.18
2022-09-20T11:46:52.839Z,13.15
2022-09-20T11:49:46.208Z,13.18
2022-09-20T11:53:06.622Z,15.02
2022-09-20T11:55:37.214Z,12.55
2022-09-20T11:58:10.309Z,12.07
2022-09-20T12:00:41.814Z,11.80
2022-09-20T12:03:33.047Z,12.13
2022-09-20T12:06:26.571Z,11.02
2022-09-20T12:08:54.028Z,14.38
2022-09-20T12:11:36.351Z,12.13
2022-09-20T12:14:17.749Z,14.30
2022-09-20T12:16:47.550Z,14.43
2022-09-20T12:19:33.065Z,12.10
2022-09-20T12:21:59.798Z,15.73
2022-09-20T12:24:45.353Z,13.07
2022-09-20T12:27:27.827Z,12.85
2022-09-20T12:30:05.430Z,12.70
2022-09-20T12:32:35.203Z,13.27
2022-09-20T12:35:02.225Z,13.27
2022-09-20T12:37:29.671Z,14.10
2022-09-20T12:39:56.724Z,13.60
2022-09-20T12:42:30.548Z,14.98
2022-09-20T12:45:07.534Z,13.63
2022-09-20T12:47:37.823Z,14.70
2022-09-20T12:50:34.155Z,14.38
2022-09-20T12:53:12.306Z,15.93
2022-09-20T12:55:55.374Z,14.93
2022-09-20T12:58:24.374Z,16.00
2022-09-20T13:01:14.357Z,14.52
2022-09-20T13:03:42.744Z,15.63
2022-09-20T13:06:16.742Z,14.90
2022-09-20T13:08:48.350Z,13.80
2022-09-20T13:11:41.570Z,16.38
2022-09-20T13:14:08.381Z,14.45
2022-09-20T13:16:38.000Z,13.57
2022-09-20T13:19:33.739Z,17.27
2022-09-20T13:22:00.399Z,13.75
2022-09-20T13:24:32.501Z,14.55
2022-09-20T13:27:07.693Z,13.88
2022-09-20T13:29:37.704Z,20.05
2022-09-20T13:32:24.268Z,16.63
2022-09-20T13:35:12.291Z,18.58
2022-09-20T13:37:45.391Z,20.05
2022-09-20T13:40:21.442Z,15.25
2022-09-20T13:42:50.319Z,14.10
2022-09-20T13:45:19.672Z,14.52
2022-09-20T13:47:51.968Z,14.57
2022-09-20T13:50:21.696Z,14.85
2022-09-20T13:52:53.560Z,13.82
2022-09-20T13:55:32.348Z,15.55
2022-09-20T13:58:09.124Z,14.48
2022-09-20T14:00:38.430Z,11.88
2022-09-20T14:03:05.420Z,12.60
2022-09-20T14:05:32.515Z,16.35
2022-09-20T14:08:01.372Z,12.95
2022-09-20T14:10:38.729Z,13.95
2022-09-20T14:13:08.638Z,14.60
2022-09-20T14:15:43.926Z,15.02
2022-09-20T14:18:22.300Z,13.27
2022-09-20T14:20:53.073Z,12.55
2022-09-20T14:23:27.848Z,14.32
2022-09-20T14:26:08.395Z,16.98
2022-09-20T14:28:35.087Z,14.43
2022-09-20T14:31:08.822Z,13.60
2022-09-20T14:33:44.295Z,12.95
2022-09-20T14:36:16.357Z,13.55
2022-09-20T14:38:45.675Z,13.00
2022-09-20T14:41:13.600Z,13.57
2022-09-20T14:43:42.439Z,12.40
2022-09-20T14:46:18.391Z,11.85
2022-09-20T14:48:45.752Z,14.40
2022-09-20T14:51:18.930Z,13.00
2022-09-20T14:53:48.632Z,13.43
2022-09-20T14:56:16.863Z,14.32
2022-09-20T14:59:07.827Z,13.90
2022-09-20T15:01:37.968Z,11.80
2022-09-20T15:04:25.605Z,12.50
2022-09-20T15:06:53.222Z,11.88
2022-09-20T15:09:21.959Z,12.30
2022-09-20T15:12:13.807Z,13.10
2022-09-20T15:14:41.545Z,12.40
2022-09-20T15:17:15.547Z,12.25
2022-09-20T15:19:42.300Z,11.82
2022-09-20T15:22:12.294Z,14.52
2022-09-20T15:24:39.356Z,12.73
2022-09-20T15:27:06.522Z,11.75
2022-09-20T15:29:33.703Z,11.60
2022-09-20T15:32:00.527Z,14.75
2022-09-20T15:34:27.233Z,11.15
2022-09-20T15:36:54.882Z,11.27
2022-09-20T15:39:22.562Z,12.70
2022-09-20T15:41:52.731Z,12.10
2022-09-20T15:44:19.968Z,12.80
2022-09-20T15:46:48.533Z,13.10
2022-09-20T15:49:15.235Z,13.98
2022-09-20T15:51:41.938Z,13.70
2022-09-20T15:54:13.814Z,15.30
2022-09-20T15:56:41.359Z,12.77
2022-09-20T15:59:10.947Z,12.55
2022-09-20T16:01:40.033Z,14.32
2022-09-20T16:04:14.884Z,13.35
2022-09-20T16:06:43.967Z,12.80
2022-09-20T16:09:10.953Z,16.20
2022-09-20T16:11:38.855Z,12.93
2022-09-20T16:14:06.773Z,12.43
2022-09-20T16:16:40.434Z,12.73
2022-09-20T16:19:20.879Z,12.65
2022-09-20T16:21:58.320Z,11.35
2022-09-20T16:24:28.186Z,12.77
2022-09-20T16:26:55.065Z,13.40
2022-09-20T16:29:26.152Z,12.43
2022-09-20T16:31:54.612Z,13.00
2022-09-20T16:34:29.781Z,16.02
2022-09-20T16:37:17.244Z,11.20
2022-09-20T16:39:44.552Z,15.43
2022-09-20T16:42:13.222Z,11.60
2022-09-20T16:44:44.944Z,13.27
2022-09-20T16:47:18.290Z,13.35
2022-09-20T16:49:47.426Z,14.00
2022-09-20T16:52:14.658Z,13.07
2022-09-20T16:54:41.393Z,12.80
2022-09-20T16:57:08.322Z,12.55
2022-09-20T16:59:35.331Z,14.43
2022-09-20T17:02:02.235Z,15.27
2022-09-20T17:04:29.109Z,12.60
2022-09-20T17:06:55.914Z,14.77
2022-09-20T17:09:22.713Z,14.60
2022-09-20T17:11:50.491Z,14.25
2022-09-20T17:14:19.756Z,14.43
2022-09-20T17:16:48.172Z,11.10
2022-09-20T17:19:18.638Z,12.97
2022-09-20T17:21:51.490Z,12.52
2022-09-20T17:24:20.567Z,13.93
2022-09-20T17:26:49.057Z,11.75
2022-09-20T17:29:17.602Z,13.80
2022-09-20T17:31:55.139Z,14.95
2022-09-20T17:34:24.016Z,12.75
2022-09-20T17:36:51.045Z,13.98
2022-09-20T17:39:18.734Z,15.60
2022-09-20T17:41:48.336Z,12.05
2022-09-20T17:44:16.145Z,12.52
2022-09-20T17:46:45.485Z,12.02
2022-09-20T17:51:52.396Z,12.95
2022-09-20T17:54:20.308Z,13.52
2022-09-20T17:56:50.438Z,12.25
2022-09-20T17:59:19.169Z,14.45
2022-09-20T18:01:48.741Z,15.80
2022-09-20T18:04:16.127Z,12.80
2022-09-20T18:06:48.130Z,12.68
2022-09-20T18:09:17.032Z,13.40
2022-09-20T18:11:49.838Z,12.07
2022-09-20T18:14:18.544Z,13.05
2022-09-20T18:16:45.624Z,14.02
2022-09-20T18:19:14.330Z,12.88
2022-09-20T18:21:41.204Z,13.65
2022-09-20T18:24:10.016Z,11.70
2022-09-20T18:26:38.086Z,11.57
2022-09-20T18:29:08.144Z,12.32
2022-09-20T18:31:42.312Z,12.98
2022-09-20T18:34:20.350Z,12.77
2022-09-20T18:36:52.789Z,11.68
2022-09-20T18:39:27.472Z,15.40
2022-09-20T18:41:55.447Z,14.98
2022-09-20T18:44:23.378Z,12.57
2022-09-20T18:46:53.151Z,11.60
2022-09-20T18:49:21.832Z,13.52
2022-09-20T18:51:49.796Z,17.15
2022-09-20T18:54:16.629Z,14.45
2022-09-20T18:56:49.072Z,13.48
2022-09-20T18:59:27.488Z,14.55
2022-09-20T19:02:02.440Z,13.30
2022-09-20T19:05:01.061Z,14.02
2022-09-20T19:07:28.095Z,15.85
2022-09-20T19:10:16.001Z,14.70
2022-09-20T19:12:56.802Z,13.30
2022-09-20T19:15:42.036Z,16.90
2022-09-20T19:18:24.518Z,16.92
2022-09-20T19:21:18.672Z,16.25
2022-09-20T19:24:03.349Z,15.77
2022-09-20T19:26:32.511Z,15.30
2022-09-20T19:29:00.395Z,14.68
2022-09-20T19:31:30.185Z,16.77
2022-09-20T19:33:59.709Z,22.02
2022-09-20T19:39:18.694Z,17.15
2022-09-20T19:42:00.440Z,20.35
2022-09-20T19:45:14.330Z,18.33
2022-09-20T19:47:47.499Z,16.73
2022-09-20T19:50:27.274Z,23.95
2022-09-20T19:52:56.360Z,16.67
2022-09-20T19:55:23.456Z,16.25
2022-09-20T19:57:51.131Z,16.67
2022-09-20T20:00:20.677Z,16.92
2022-09-20T20:05:17.704Z,16.60
2022-09-20T20:08:09.037Z,17.27
2022-09-20T20:10:54.231Z,18.58
2022-09-20T20:13:59.409Z,17.73
2022-09-20T20:16:55.351Z,18.08
2022-09-20T20:19:22.141Z,18.38
2022-09-20T20:22:19.398Z,20.20
2022-09-20T20:24:53.868Z,26.40
2022-09-20T20:27:21.141Z,18.98
2022-09-20T20:29:48.164Z,19.00
2022-09-20T20:32:15.480Z,23.35
2022-09-20T20:34:42.469Z,19.85
2022-09-20T20:37:09.399Z,19.25
2022-09-20T20:39:36.276Z,22.15
2022-09-20T20:42:08.510Z,19.55
2022-09-20T20:44:35.318Z,19.05
2022-09-20T20:47:06.844Z,19.77
2022-09-20T20:49:33.897Z,20.05
2022-09-20T20:52:04.834Z,18.48
2022-09-20T20:54:32.803Z,22.45
2022-09-20T20:56:59.893Z,19.42
2022-09-20T20:59:26.932Z,20.33
2022-09-20T21:01:54.010Z,18.17
2022-09-20T21:04:21.862Z,20.83
2022-09-20T21:06:50.300Z,23.67
2022-09-20T21:09:19.723Z,20.98
2022-09-20T21:11:48.619Z,17.83
2022-09-20T21:14:32.063Z,18.88
2022-09-20T21:17:05.197Z,22.40
2022-09-20T21:19:32.152Z,19.92
2022-09-20T21:21:59.227Z,18.23
2022-09-20T21:24:26.097Z,25.52
2022-09-20T21:26:53.815Z,23.23
2022-09-20T21:29:21.001Z,24.55
2022-09-20T21:31:47.956Z,32.17
2022-09-20T21:34:16.274Z,25.58
2022-09-20T21:36:44.866Z,26.10
2022-09-20T21:39:12.307Z,27.00
2022-09-20T21:41:40.306Z,18.70
2022-09-20T21:44:10.818Z,21.75
2022-09-20T21:46:42.825Z,18.23
2022-09-20T21:49:11.482Z,16.60
2022-09-20T21:51:40.360Z,17.25
2022-09-20T21:54:07.511Z,18.55
2022-09-20T21:56:39.042Z,17.17
2022-09-20T21:59:06.444Z,17.23
2022-09-20T22:01:39.049Z,20.52
2022-09-20T22:04:08.245Z,20.58
2022-09-20T22:06:37.573Z,21.35
2022-09-20T22:09:08.113Z,23.40
2022-09-20T22:11:43.346Z,21.48
2022-09-20T22:14:12.474Z,17.77
2022-09-20T22:16:47.017Z,20.13
2022-09-20T22:19:17.541Z,20.60
2022-09-20T22:21:46.977Z,20.02
2022-09-20T22:24:15.285Z,22.60
2022-09-20T22:26:44.769Z,17.88
2022-09-20T22:29:12.091Z,18.35
2022-09-20T22:31:47.722Z,20.25
2022-09-20T22:34:22.580Z,19.88
2022-09-20T22:36:49.760Z,21.45
2022-09-20T22:39:17.209Z,19.92
2022-09-20T22:41:45.045Z,20.35
2022-09-20T22:44:12.067Z,23.10
2022-09-20T22:46:39.462Z,20.42
2022-09-20T22:49:07.397Z,20.15
2022-09-20T22:51:34.807Z,26.35
2022-09-20T22:54:06.484Z,20.33
2022-09-20T22:56:34.584Z,22.23
2022-09-20T22:59:11.985Z,21.13
2022-09-20T23:01:48.099Z,23.70
2022-09-20T23:04:17.702Z,24.67
2022-09-20T23:06:52.065Z,21.58
2022-09-20T23:09:19.089Z,29.55
2022-09-20T23:11:46.894Z,24.98
2022-09-20T23:14:17.369Z,23.60
2022-09-20T23:16:44.728Z,25.88
2022-09-20T23:19:12.728Z,26.30
2022-09-20T23:21:40.983Z,28.88
2022-09-20T23:24:11.115Z,27.38
2022-09-20T23:26:39.815Z,23.60
2022-09-20T23:29:09.325Z,24.05
2022-09-20T23:31:37.801Z,27.25
2022-09-20T23:34:06.765Z,28.40
2022-09-20T23:36:36.516Z,26.23
2022-09-20T23:41:30.334Z,25.83
2022-09-20T23:43:57.308Z,25.92
2022-09-20T23:46:26.200Z,28.85
2022-09-20T23:48:53.548Z,27.70
2022-09-20T23:51:23.608Z,27.00
2022-09-20T23:53:52.020Z,24.50
2022-09-20T23:56:20.117Z,31.63
2022-09-20T23:58:47.430Z,32.00
